Time;durP1;ratioP1;P1;durP2;ratioP2;P2;SDS_P1;SDS_P2;PMS_P1;PMS_P2;Temp;Humidity;BMP_temperature;BMP_pressure;BME280_temperature;BME280_humidity;BME280_pressure;Samples;Min_cycle;Max_cycle;Signal;HPM_P1;HPM_P2
2023/10/19 00:00:22;;;;;;;13.00;8.10;;;;;;;0.82;80.76;98664.83;108634;1263;72722;-23
2023/10/19 00:02:54;;;;;;;16.40;8.60;;;;;;;0.67;81.30;98665.86;108723;1266;58829;-23
2023/10/19 00:05:26;;;;;;;12.90;7.40;;;;;;;0.57;81.45;98668.19;108640;1263;58737;-22
2023/10/19 00:07:57;;;;;;;13.70;7.80;;;;;;;1.08;81.40;98663.72;108765;1263;71913;-22
2023/10/19 00:10:26;;;;;;;12.20;7.10;;;;;;;1.64;80.10;98662.55;108736;1264;74321;-23
2023/10/19 00:12:59;;;;;;;12.70;7.30;;;;;;;1.75;79.30;98660.61;108697;1265;72621;-23
2023/10/19 00:15:31;;;;;;;12.50;6.70;;;;;;;1.63;78.93;98663.44;108690;1265;58957;-23
2023/10/19 00:18:13;;;;;;;13.90;7.10;;;;;;;1.40;79.18;98665.26;108591;1266;60036;-22
2023/10/19 00:23:18;;;;;;;13.10;8.10;;;;;;;1.00;80.14;98658.50;108522;1265;74301;-23
2023/10/19 00:25:50;;;;;;;11.20;7.50;;;;;;;0.83;80.73;98661.90;108746;1266;71527;-22
2023/10/19 00:28:18;;;;;;;9.40;6.60;;;;;;;0.69;81.66;98660.95;108807;1263;60906;-23
2023/10/19 00:30:48;;;;;;;14.00;7.70;;;;;;;1.20;81.62;98660.06;108793;1264;58840;-23
2023/10/19 00:33:20;;;;;;;14.40;8.80;;;;;;;1.81;79.67;98661.85;109021;1259;73067;-23
2023/10/19 00:36:07;;;;;;;19.50;8.70;;;;;;;1.89;78.87;98660.19;108957;1259;74338;-23
2023/10/19 00:41:12;;;;;;;10.60;6.70;;;;;;;1.49;78.21;98656.60;108934;1261;58848;-23
2023/10/19 00:43:44;;;;;;;14.90;8.10;;;;;;;1.20;78.47;98654.98;108909;1260;59999;-23
2023/10/19 00:48:54;;;;;;;13.60;6.70;;;;;;;0.71;79.87;98648.92;108941;1259;73117;-23
2023/10/19 00:54:09;;;;;;;13.00;7.60;;;;;;;0.41;81.17;98648.45;108874;1261;59028;-23
2023/10/19 00:56:37;;;;;;;9.40;6.40;;;;;;;1.00;81.47;98648.42;108982;1259;60122;-23
2023/10/19 00:59:14;;;;;;;12.70;7.70;;;;;;;1.55;79.85;98645.01;109000;1259;73857;-23
2023/10/19 01:01:46;;;;;;;14.40;6.70;;;;;;;1.59;78.68;98642.91;109016;1258;73154;-23
2023/10/19 01:04:20;;;;;;;11.90;6.80;;;;;;;1.33;78.62;98645.91;108952;1259;71415;-23
2023/10/19 01:09:36;;;;;;;9.50;6.80;;;;;;;0.74;79.83;98644.50;109049;1259;58736;-23
2023/10/19 01:12:25;;;;;;;13.70;7.60;;;;;;;0.53;80.82;98640.71;108995;1259;72651;-22
2023/10/19 01:15:13;;;;;;;13.00;7.40;;;;;;;0.30;81.60;98639.73;109005;1259;74423;-22
2023/10/19 01:17:44;;;;;;;14.30;8.30;;;;;;;0.10;82.43;98639.27;108909;1262;72651;-22
2023/10/19 01:25:50;;;;;;;12.70;7.90;;;;;;;1.28;81.22;98636.47;108905;1260;72556;-23
2023/10/19 01:28:18;;;;;;;11.30;7.00;;;;;;;1.32;79.96;98633.83;108873;1259;74339;-23
2023/10/19 01:30:45;;;;;;;10.20;6.80;;;;;;;1.15;79.51;98627.02;108965;1260;72662;-22
2023/10/19 01:33:14;;;;;;;10.80;7.20;;;;;;;0.90;79.72;98628.55;109005;1259;59272;-23
2023/10/19 01:38:30;;;;;;;13.40;7.60;;;;;;;0.40;80.32;98634.33;108951;1259;73847;-22
2023/10/19 01:41:05;;;;;;;9.70;7.20;;;;;;;0.19;80.80;98630.45;108961;1259;74355;-23
2023/10/19 01:43:33;;;;;;;10.50;6.90;;;;;;;-0.02;81.86;98629.72;108893;1262;72749;-23
2023/10/19 01:46:13;;;;;;;11.90;7.60;;;;;;;-0.15;82.80;98629.95;108991;1259;59560;-23
2023/10/19 01:48:41;;;;;;;11.40;6.60;;;;;;;0.42;83.35;98623.75;108940;1258;60118;-23
2023/10/19 01:51:13;;;;;;;12.40;8.40;;;;;;;1.09;81.97;98618.90;108850;1262;73812;-23
2023/10/19 01:53:44;;;;;;;23.80;10.00;;;;;;;1.25;80.76;98618.48;108913;1259;74199;-23
2023/10/19 01:56:14;;;;;;;14.00;8.00;;;;;;;1.10;80.05;98620.23;108943;1259;72702;-23
2023/10/19 01:58:43;;;;;;;10.00;5.90;;;;;;;0.86;79.75;98618.81;108915;1259;59305;-23
2023/10/19 02:01:18;;;;;;;10.60;7.10;;;;;;;0.56;80.53;98623.67;108862;1260;60013;-22
2023/10/19 02:03:47;;;;;;;14.20;7.70;;;;;;;0.31;81.37;98622.45;108977;1259;72781;-22
2023/10/19 02:06:19;;;;;;;18.50;8.40;;;;;;;0.12;81.63;98623.77;108948;1261;74336;-22
2023/10/19 02:08:51;;;;;;;12.00;7.60;;;;;;;-0.05;82.61;98625.23;108841;1259;72694;-23
2023/10/19 02:11:24;;;;;;;14.90;8.10;;;;;;;0.40;82.74;98623.56;108829;1260;59324;-23
2023/10/19 02:13:54;;;;;;;13.00;7.50;;;;;;;0.96;80.95;98624.48;108768;1260;60031;-23
2023/10/19 02:16:32;;;;;;;16.30;8.20;;;;;;;0.96;79.66;98621.73;108823;1259;73838;-23
2023/10/19 02:19:01;;;;;;;10.50;7.40;;;;;;;0.74;79.54;98629.81;108894;1259;74535;-23
2023/10/19 02:21:30;;;;;;;12.70;8.10;;;;;;;0.41;80.66;98627.75;108946;1259;71588;-23
2023/10/19 02:23:58;;;;;;;12.60;8.40;;;;;;;0.12;82.39;98620.21;108932;1258;59253;-23
2023/10/19 02:26:27;;;;;;;13.50;8.10;;;;;;;0.06;83.00;98614.66;108966;1259;60080;-23
2023/10/19 02:28:56;;;;;;;17.00;10.90;;;;;;;-0.06;83.37;98612.81;108955;1260;73884;-22
2023/10/19 02:31:27;;;;;;;10.90;7.60;;;;;;;-0.05;83.47;98609.02;108939;1260;73090;-22
2023/10/19 02:34:01;;;;;;;13.40;7.30;;;;;;;0.59;83.24;98619.08;108979;1260;72649;-23
2023/10/19 02:36:31;;;;;;;;;;;;;;;0.98;81.15;98614.14;108974;1260;60092;-23
2023/10/19 02:39:00;;;;;;;13.80;8.10;;;;;;;0.87;80.07;98610.93;108967;1259;59831;-23
2023/10/19 02:41:28;;;;;;;9.80;7.10;;;;;;;0.64;80.10;98611.51;108860;1260;73919;-23
2023/10/19 02:44:09;;;;;;;12.80;7.60;;;;;;;0.37;80.73;98612.42;108909;1260;73203;-22
2023/10/19 02:46:41;;;;;;;12.70;7.90;;;;;;;0.14;81.64;98609.67;108939;1259;72635;-23
2023/10/19 02:49:11;;;;;;;11.40;5.90;;;;;;;-0.04;82.95;98616.48;108933;1260;59298;-23
2023/10/19 02:51:40;;;;;;;13.90;8.30;;;;;;;-0.17;83.52;98615.69;108835;1259;60019;-23
2023/10/19 02:54:15;;;;;;;13.00;7.90;;;;;;;-0.26;83.12;98611.66;108873;1258;72633;-23
2023/10/19 02:56:48;;;;;;;12.40;7.90;;;;;;;0.32;82.42;98609.04;108953;1259;74314;-23
2023/10/19 02:59:17;;;;;;;11.70;7.40;;;;;;;0.92;81.11;98605.38;108932;1260;71395;-23
2023/10/19 03:01:45;;;;;;;11.80;8.70;;;;;;;0.85;79.97;98604.20;108952;1259;60173;-23
2023/10/19 03:04:13;;;;;;;16.30;10.00;;;;;;;0.53;81.03;98599.70;108977;1259;60578;-23
2023/10/19 03:06:41;;;;;;;13.50;8.70;;;;;;;0.36;81.91;98604.60;108909;1259;73910;-23
2023/10/19 03:09:22;;;;;;;13.40;8.40;;;;;;;0.20;82.41;98600.58;108934;1259;74312;-22
2023/10/19 03:11:54;;;;;;;15.30;9.40;;;;;;;0.10;82.37;98594.17;108964;1259;72671;-23
2023/10/19 03:14:25;;;;;;;18.70;9.60;;;;;;;-0.07;82.30;98592.40;108965;1260;58819;-22
2023/10/19 03:16:56;;;;;;;10.80;6.80;;;;;;;-0.14;82.71;98594.39;108789;1260;60122;-22
2023/10/19 03:19:28;;;;;;;13.70;7.80;;;;;;;0.52;82.01;98592.77;108955;1260;72585;-22
2023/10/19 03:22:00;;;;;;;9.20;6.40;;;;;;;0.98;80.40;98588.67;108766;1260;74348;-23
2023/10/19 03:24:36;;;;;;;12.40;8.60;;;;;;;0.84;80.33;98593.84;108838;1260;72693;-23
2023/10/19 03:27:24;;;;;;;12.80;8.30;;;;;;;0.62;80.87;98589.89;108921;1260;58817;-23
2023/10/19 03:29:55;;;;;;;15.60;8.80;;;;;;;0.34;81.75;98587.44;108797;1260;58957;-23
2023/10/19 03:32:35;;;;;;;14.60;8.10;;;;;;;0.12;82.10;98585.87;108762;1260;74363;-23
2023/10/19 03:35:06;;;;;;;14.00;8.40;;;;;;;-0.07;82.64;98590.13;108881;1260;74316;-22
2023/10/19 03:37:36;;;;;;;19.80;8.90;;;;;;;-0.25;82.74;98590.95;108753;1261;73818;-23
2023/10/19 03:40:07;;;;;;;10.50;7.90;;;;;;;-0.40;83.71;98591.30;108817;1260;59568;-22
2023/10/19 03:42:46;;;;;;;16.90;7.90;;;;;;;0.07;83.37;98590.88;108848;1260;58757;-23
2023/10/19 03:45:17;;;;;;;14.10;8.60;;;;;;;0.69;81.42;98591.92;108951;1260;73788;-23
2023/10/19 03:47:49;;;;;;;19.70;9.60;;;;;;;0.72;80.14;98586.69;108778;1260;73190;-22
2023/10/19 03:50:23;;;;;;;13.50;8.00;;;;;;;0.48;79.87;98588.48;108893;1260;72727;-22
2023/10/19 03:52:53;;;;;;;12.90;9.00;;;;;;;0.11;80.17;98586.63;108720;1260;58830;-22
2023/10/19 03:55:23;;;;;;;17.60;8.70;;;;;;;-0.12;81.86;98585.78;108847;1260;60058;-23
2023/10/19 03:57:55;;;;;;;14.60;8.10;;;;;;;-0.20;82.67;98584.42;108848;1260;73881;-23
2023/10/19 04:00:28;;;;;;;12.80;8.50;;;;;;;-0.29;83.21;98579.02;108875;1260;74360;-23
2023/10/19 04:02:59;;;;;;;9.80;7.20;;;;;;;-0.35;83.07;98578.63;108886;1260;72712;-22
2023/10/19 04:05:31;;;;;;;12.50;8.30;;;;;;;0.21;82.76;98576.77;108827;1263;59191;-23
2023/10/19 04:08:05;;;;;;;14.50;8.20;;;;;;;0.81;81.17;98572.58;108953;1260;60119;-23
2023/10/19 04:18:10;;;;;;;11.80;7.30;;;;;;;0.19;80.15;98568.34;102671;1289;599650;-24
2023/10/19 04:23:20;;;;;;;12.80;8.00;;;;;;;-0.34;80.76;98566.43;104821;1268;61121;-24
2023/10/19 04:25:48;;;;;;;13.50;8.50;;;;;;;-0.54;81.16;98560.65;104865;1265;72399;-24
2023/10/19 04:28:20;;;;;;;14.00;8.30;;;;;;;-0.69;81.37;98566.41;104861;1270;74346;-24
2023/10/19 04:30:48;;;;;;;15.80;8.40;;;;;;;-0.21;81.45;98559.73;102606;1271;3129149;-25
2023/10/19 04:33:18;;;;;;;21.00;9.90;;;;;;;0.41;80.10;98558.25;104876;1271;61121;-24
2023/10/19 04:35:51;;;;;;;17.10;10.10;;;;;;;0.50;78.86;98555.80;105187;1267;61183;-24
2023/10/19 04:38:20;;;;;;;15.40;10.30;;;;;;;0.27;78.58;98555.48;105082;1262;71053;-24
2023/10/19 04:47:17;;;;;;;12.70;7.60;;;;;;;-0.63;79.82;98559.17;102611;1291;600281;-22
2023/10/19 04:57:24;;;;;;;10.70;6.60;;;;;;;-1.26;81.54;98565.70;102847;1290;599882;-23
2023/10/19 04:59:52;;;;;;;15.20;8.20;;;;;;;-0.62;81.61;98569.20;104894;1271;61283;-24
2023/10/19 05:02:19;;;;;;;17.50;8.70;;;;;;;0.11;80.83;98569.23;104805;1267;61072;-24
2023/10/19 05:04:47;;;;;;;14.80;8.60;;;;;;;0.30;79.73;98570.02;105042;1269;71719;-23
2023/10/19 05:07:18;;;;;;;17.10;9.40;;;;;;;0.21;79.44;98569.60;104867;1272;74306;-25
2023/10/19 05:09:46;;;;;;;16.50;8.50;;;;;;;0.04;79.66;98568.16;104788;1273;72379;-24
2023/10/19 05:12:14;;;;;;;22.50;8.00;;;;;;;-0.12;79.84;98569.73;102759;1267;61215;-24
2023/10/19 05:14:42;;;;;;;14.90;8.70;;;;;;;-0.25;79.95;98567.92;104966;1269;61245;-23
2023/10/19 05:17:10;;;;;;;15.90;9.10;;;;;;;-0.37;80.45;98567.95;105015;1269;61247;-23
2023/10/19 05:19:39;;;;;;;18.40;9.00;;;;;;;-0.47;81.34;98568.52;104903;1266;74333;-25
2023/10/19 05:22:08;;;;;;;12.40;7.60;;;;;;;0.08;81.93;98569.34;104785;1266;72650;-23
2023/10/19 05:24:36;;;;;;;16.60;9.30;;;;;;;0.78;80.55;98569.48;104835;1272;61199;-23
2023/10/19 05:27:04;;;;;;;18.10;10.30;;;;;;;0.94;79.43;98568.50;105003;1267;61214;-24
2023/10/19 05:29:35;;;;;;;15.10;7.50;;;;;;;0.88;79.26;98565.91;104974;1267;72126;-24
2023/10/19 05:32:04;;;;;;;15.90;8.80;;;;;;;0.71;78.95;98561.09;104838;1270;73168;-23
2023/10/19 05:34:35;;;;;;;14.00;9.00;;;;;;;0.56;79.17;98567.10;104984;1266;71377;-25
2023/10/19 05:37:05;;;;;;;17.40;9.80;;;;;;;0.40;79.72;98565.48;104959;1267;61189;-24
2023/10/19 05:47:11;;;;;;;21.90;11.40;;;;;;;1.74;79.25;98563.80;102776;1290;600477;-25
2023/10/19 05:49:39;;;;;;;21.00;9.90;;;;;;;2.05;77.76;98564.23;105089;1264;61167;-24
2023/10/19 05:52:06;;;;;;;28.30;11.70;;;;;;;1.99;77.32;98564.70;104844;1264;61145;-23
2023/10/19 05:54:34;;;;;;;20.80;9.90;;;;;;;1.84;77.28;98564.29;104911;1264;72212;-23
2023/10/19 05:57:01;;;;;;;20.30;10.60;;;;;;;1.66;77.61;98559.42;104897;1269;73529;-24
2023/10/19 05:59:33;;;;;;;21.50;11.10;;;;;;;1.50;77.90;98557.19;104856;1264;72660;-24
2023/10/19 06:09:43;;;;;;;17.40;8.50;;;;;;;1.19;80.03;98557.71;102634;1293;599529;-23
2023/10/19 06:12:11;;;;;;;14.70;9.80;;;;;;;1.84;79.99;98554.73;104784;1267;61123;-23
2023/10/19 06:14:38;;;;;;;15.30;9.80;;;;;;;2.48;78.91;98551.56;104759;1272;62639;-23
2023/10/19 06:17:06;;;;;;;17.40;10.00;;;;;;;2.66;77.94;98549.36;104871;1269;70958;-24
2023/10/19 06:19:34;;;;;;;20.10;10.00;;;;;;;2.65;77.76;98551.28;104781;1267;75881;-24
2023/10/19 06:22:02;;;;;;;21.80;10.70;;;;;;;2.42;77.72;98547.78;104802;1266;71686;-24
2023/10/19 06:24:30;;;;;;;19.30;12.60;;;;;;;2.26;77.95;98548.37;102742;1264;3160619;-23
2023/10/19 06:26:58;;;;;;;21.30;10.90;;;;;;;2.12;78.45;98548.95;105088;1264;61112;-23
2023/10/19 06:29:28;;;;;;;18.70;9.90;;;;;;;2.03;79.17;98551.66;104995;1269;71768;-25
2023/10/19 06:31:56;;;;;;;14.70;9.40;;;;;;;2.55;79.49;98555.62;105151;1264;74264;-23
2023/10/19 06:42:13;;;;;;;17.60;10.90;;;;;;;3.38;76.67;98549.70;102602;1294;600184;-23
2023/10/19 06:44:44;;;;;;;19.20;11.60;;;;;;;3.06;77.28;98547.41;105517;1260;61206;-22
2023/10/19 06:47:13;;;;;;;17.40;11.80;;;;;;;2.92;77.47;98543.77;105612;1254;61857;-22
2023/10/19 06:49:41;;;;;;;20.80;12.50;;;;;;;2.94;78.15;98543.13;105628;1261;71037;-22
2023/10/19 06:52:11;;;;;;;19.90;10.10;;;;;;;3.04;78.56;98544.83;105699;1260;73142;-22
2023/10/19 06:54:39;;;;;;;13.40;8.60;;;;;;;3.73;78.54;98543.98;103395;1258;3105800;-22
2023/10/19 06:57:08;;;;;;;13.80;10.40;;;;;;;4.57;76.60;98542.02;105370;1260;61164;-22
2023/10/19 06:59:36;;;;;;;17.60;10.80;;;;;;;4.91;75.20;98543.41;105890;1252;61085;-22
2023/10/19 07:02:04;;;;;;;21.80;12.20;;;;;;;4.97;73.91;98540.77;105868;1258;70938;-22
2023/10/19 07:04:32;;;;;;;18.90;12.40;;;;;;;4.88;73.40;98541.23;105732;1267;74330;-23
2023/10/19 07:07:00;;;;;;;19.30;12.80;;;;;;;4.84;74.01;98539.04;105836;1259;72638;-23
2023/10/19 07:09:28;;;;;;;19.60;13.00;;;;;;;4.77;73.90;98538.48;105844;1260;61186;-22
2023/10/19 07:19:43;;;;;;;22.80;14.30;;;;;;;4.63;75.15;98532.53;102624;1294;599933;-21
2023/10/19 07:22:11;;;;;;;24.00;10.30;;;;;;;4.81;75.78;98531.86;104837;1266;61171;-21
2023/10/19 07:24:38;;;;;;;16.30;10.90;;;;;;;5.60;75.44;98531.17;104827;1270;61116;-21
2023/10/19 07:27:07;;;;;;;16.10;11.10;;;;;;;6.50;72.95;98521.16;105495;1262;72185;-23
2023/10/19 07:29:52;;;;;;;19.50;12.30;;;;;;;6.93;70.94;98516.60;105309;1260;74265;-24
2023/10/19 07:32:21;;;;;;;18.70;12.60;;;;;;;7.02;70.15;98513.36;102979;1257;3147648;-24
2023/10/19 07:34:48;;;;;;;19.90;12.60;;;;;;;7.13;69.93;98513.73;105535;1262;61227;-24
2023/10/19 07:37:16;;;;;;;19.10;13.10;;;;;;;7.13;68.89;98509.43;105563;1257;61062;-24
2023/10/19 07:39:45;;;;;;;20.40;13.50;;;;;;;7.10;68.71;98506.55;105521;1257;74253;-24
2023/10/19 07:42:17;;;;;;;18.80;13.70;;;;;;;7.09;69.41;98509.42;105559;1257;73322;-24
2023/10/19 07:44:44;;;;;;;17.60;13.40;;;;;;;7.13;69.57;98508.54;105586;1260;74935;-24
2023/10/19 07:47:12;;;;;;;17.30;13.60;;;;;;;7.02;68.56;98508.54;105522;1258;61152;-24
2023/10/19 07:49:39;;;;;;;18.90;14.40;;;;;;;7.14;69.55;98509.34;105566;1260;61129;-24
2023/10/19 07:52:07;;;;;;;24.70;12.90;;;;;;;7.26;68.69;98504.67;105568;1257;71838;-23
2023/10/19 07:54:35;;;;;;;15.00;12.20;;;;;;;7.28;68.30;98507.11;105586;1257;73206;-24
2023/10/19 07:57:07;;;;;;;21.10;14.30;;;;;;;7.36;68.24;98505.27;105554;1261;71804;-24
2023/10/19 07:59:35;;;;;;;19.90;14.90;;;;;;;7.34;66.62;98502.69;105615;1257;61163;-24
2023/10/19 08:02:02;;;;;;;20.10;15.30;;;;;;;7.10;66.92;98503.10;105572;1257;61054;-24
2023/10/19 08:04:31;;;;;;;22.80;14.30;;;;;;;7.21;68.91;98506.95;105524;1258;73966;-23
2023/10/19 08:06:59;;;;;;;21.70;14.90;;;;;;;7.28;67.77;98505.00;105562;1257;74138;-23
2023/10/19 08:09:31;;;;;;;22.70;15.10;;;;;;;7.47;68.15;98505.86;105385;1258;74663;-24
2023/10/19 08:11:59;;;;;;;27.00;15.70;;;;;;;7.57;67.16;98503.13;105331;1264;61742;-23
2023/10/19 08:14:30;;;;;;;19.80;13.40;;;;;;;7.55;67.31;98494.70;105571;1257;61156;-23
2023/10/19 08:24:43;;;;;;;14.40;10.60;;;;;;;7.84;66.70;98488.81;102600;1293;600097;-22
2023/10/19 08:27:13;;;;;;;14.80;10.40;;;;;;;8.09;65.48;98486.70;104875;1269;61221;-23
2023/10/19 08:29:40;;;;;;;15.30;10.30;;;;;;;8.21;64.30;98480.31;104804;1271;61238;-24
2023/10/19 08:32:08;;;;;;;13.50;9.10;;;;;;;8.43;64.06;98480.63;104837;1272;72314;-24
2023/10/19 08:34:36;;;;;;;13.10;9.50;;;;;;;8.32;61.86;98477.38;104819;1267;77147;-24
2023/10/19 08:37:07;;;;;;;13.70;8.90;;;;;;;8.39;62.65;98479.58;105040;1268;74818;-24
2023/10/19 08:39:37;;;;;;;11.80;8.90;;;;;;;8.71;62.72;98487.10;102710;1269;61245;-24
2023/10/19 08:42:05;;;;;;;11.80;9.00;;;;;;;9.04;62.47;98489.03;105585;1259;61693;-23
2023/10/19 08:44:34;;;;;;;12.40;9.00;;;;;;;9.34;62.92;98488.27;105616;1263;74225;-24
2023/10/19 08:47:02;;;;;;;12.60;8.70;;;;;;;9.74;61.95;98489.99;105533;1263;74566;-24
2023/10/19 08:49:31;;;;;;;11.30;7.70;;;;;;;10.09;60.96;98481.11;105621;1257;72146;-21
2023/10/19 08:51:58;;;;;;;9.30;6.60;;;;;;;10.41;59.77;98475.14;105617;1256;61016;-22
2023/10/19 08:54:27;;;;;;;9.80;6.90;;;;;;;10.61;57.03;98474.41;105569;1262;61157;-22
2023/10/19 09:04:47;;;;;;;17.00;7.00;;;;;;;11.58;56.03;98460.36;102661;1294;600110;-22
2023/10/19 09:07:18;;;;;;;10.50;5.70;;;;;;;11.67;54.34;98457.38;104867;1267;62034;-21
2023/10/19 09:09:47;;;;;;;8.00;5.80;;;;;;;11.78;53.79;98458.73;104809;1266;61059;-22
2023/10/19 09:12:15;;;;;;;9.30;6.10;;;;;;;11.95;53.06;98454.52;104777;1268;71053;-22
2023/10/19 09:14:43;;;;;;;8.10;5.40;;;;;;;12.16;53.52;98454.94;104701;1273;74295;-24
2023/10/19 09:17:10;;;;;;;8.70;5.10;;;;;;;12.49;52.54;98450.77;102732;1268;3270204;-22
2023/10/19 09:19:43;;;;;;;6.80;5.00;;;;;;;12.61;51.37;98451.49;105102;1263;61110;-21
2023/10/19 09:22:18;;;;;;;7.70;5.00;;;;;;;12.76;51.13;98450.33;105172;1263;61082;-23
2023/10/19 09:24:46;;;;;;;6.80;4.90;;;;;;;12.79;50.29;98442.08;105177;1266;72951;-22
2023/10/19 09:27:17;;;;;;;7.60;5.00;;;;;;;12.54;49.16;98439.77;105586;1259;74289;-22
2023/10/19 09:29:45;;;;;;;7.50;4.10;;;;;;;12.61;50.74;98438.41;105541;1259;72755;-23
2023/10/19 09:32:13;;;;;;;8.50;5.20;;;;;;;12.45;48.68;98434.40;105639;1254;61428;-24
2023/10/19 09:34:44;;;;;;;7.00;4.80;;;;;;;12.04;50.48;98429.35;105693;1259;61153;-24
2023/10/19 09:37:14;;;;;;;7.90;4.80;;;;;;;12.39;51.53;98425.81;105627;1254;73011;-23
2023/10/19 09:39:43;;;;;;;7.90;4.60;;;;;;;12.80;50.27;98418.95;105713;1262;72706;-23
2023/10/19 09:42:11;;;;;;;8.40;4.90;;;;;;;13.01;49.40;98411.13;105653;1259;71401;-23
2023/10/19 09:44:43;;;;;;;9.00;4.40;;;;;;;12.69;49.09;98405.92;105722;1257;62308;-23
2023/10/19 09:47:12;;;;;;;6.00;4.60;;;;;;;12.34;49.29;98404.14;105676;1254;61312;-23
2023/10/19 09:49:42;;;;;;;9.40;5.30;;;;;;;12.31;49.49;98396.95;105711;1254;75414;-23
2023/10/19 09:52:11;;;;;;;6.60;4.50;;;;;;;12.56;50.00;98395.53;105721;1254;76471;-23
2023/10/19 09:54:39;;;;;;;8.80;5.50;;;;;;;12.61;48.25;98395.05;105722;1259;74698;-23
2023/10/19 09:57:16;;;;;;;6.80;4.40;;;;;;;12.36;49.15;98391.10;105666;1259;63365;-23
2023/10/19 09:59:46;;;;;;;6.70;4.70;;;;;;;12.48;49.61;98390.42;105375;1259;62273;-24
2023/10/19 10:02:15;;;;;;;10.00;4.70;;;;;;;12.81;49.03;98389.21;105532;1254;72042;-24
2023/10/19 10:04:45;;;;;;;8.70;5.00;;;;;;;13.09;48.47;98384.47;105375;1261;72763;-23
2023/10/19 10:07:14;;;;;;;8.40;4.60;;;;;;;12.90;47.90;98382.88;105679;1259;74212;-23
2023/10/19 10:09:52;;;;;;;6.40;5.00;;;;;;;12.93;48.74;98379.64;105648;1252;61174;-23
2023/10/19 10:12:24;;;;;;;7.90;4.70;;;;;;;13.29;48.28;98379.34;105643;1253;62046;-23
2023/10/19 10:15:03;;;;;;;7.10;5.10;;;;;;;13.32;47.58;98377.31;105617;1254;73368;-23
2023/10/19 10:17:33;;;;;;;7.50;4.40;;;;;;;13.45;47.25;98375.63;105691;1254;74232;-23
2023/10/19 10:20:14;;;;;;;6.30;4.40;;;;;;;13.45;46.65;98372.63;105645;1261;74945;-23
2023/10/19 10:22:42;;;;;;;9.70;4.80;;;;;;;12.89;47.84;98361.45;105635;1259;61257;-23
2023/10/19 10:25:29;;;;;;;7.50;5.10;;;;;;;13.47;47.42;98351.65;105657;1259;61125;-23
2023/10/19 10:27:58;;;;;;;7.10;4.30;;;;;;;13.80;46.87;98350.21;105617;1254;75442;-23
2023/10/19 10:30:28;;;;;;;6.70;4.70;;;;;;;13.94;44.53;98344.39;105691;1254;74789;-23
2023/10/19 10:32:56;;;;;;;5.90;4.70;;;;;;;13.89;44.61;98334.20;105713;1254;72246;-23
2023/10/19 10:35:36;;;;;;;7.50;4.80;;;;;;;13.91;45.21;98329.41;105738;1256;62385;-23
2023/10/19 10:38:13;;;;;;;8.60;5.30;;;;;;;14.10;44.46;98321.64;105662;1254;61056;-23
2023/10/19 10:40:45;;;;;;;10.50;5.00;;;;;;;14.26;45.57;98312.28;105629;1254;75134;-23
2023/10/19 10:43:13;;;;;;;5.70;4.30;;;;;;;14.88;43.85;98307.36;105570;1261;74283;-23
2023/10/19 10:45:41;;;;;;;6.20;4.00;;;;;;;15.02;43.20;98303.50;105376;1260;73168;-23
2023/10/19 10:48:16;;;;;;;5.90;4.40;;;;;;;14.98;42.63;98298.90;105628;1253;61125;-23
2023/10/19 10:50:45;;;;;;;6.10;4.10;;;;;;;14.66;42.30;98297.71;105496;1254;61525;-23
2023/10/19 10:53:15;;;;;;;6.10;4.30;;;;;;;14.89;43.47;98293.77;105449;1254;75327;-23
2023/10/19 10:55:42;;;;;;;6.80;4.40;;;;;;;15.03;42.11;98288.94;105493;1254;76767;-23
2023/10/19 10:58:17;;;;;;;6.80;3.90;;;;;;;14.91;41.76;98286.88;105724;1259;71086;-23
2023/10/19 11:00:51;;;;;;;6.50;4.20;;;;;;;14.83;42.19;98275.42;105390;1261;61173;-23
2023/10/19 11:03:21;;;;;;;7.90;3.80;;;;;;;15.36;41.94;98270.70;105599;1255;61109;-23
2023/10/19 11:05:49;;;;;;;9.10;4.30;;;;;;;15.79;40.68;98255.72;105419;1259;71865;-22
2023/10/19 11:08:20;;;;;;;7.50;4.10;;;;;;;16.02;40.38;98255.02;105537;1259;75122;-25
2023/10/19 11:10:48;;;;;;;6.20;4.10;;;;;;;16.19;40.03;98252.23;105615;1260;70780;-22
2023/10/19 11:13:17;;;;;;;6.00;3.70;;;;;;;16.20;39.66;98255.00;105694;1254;62107;-23
2023/10/19 11:15:53;;;;;;;6.50;3.80;;;;;;;15.58;38.86;98255.89;105722;1254;61023;-24
2023/10/19 11:18:32;;;;;;;9.00;4.40;;;;;;;14.83;40.39;98252.89;105713;1260;71524;-23
2023/10/19 11:21:04;;;;;;;6.50;4.10;;;;;;;14.59;41.30;98248.77;105674;1268;73509;-23
2023/10/19 11:23:39;;;;;;;5.10;3.70;;;;;;;14.19;41.64;98237.98;105498;1260;72839;-24
2023/10/19 11:26:07;;;;;;;6.70;3.60;;;;;;;14.38;42.66;98232.62;105607;1260;61237;-23
2023/10/19 11:28:38;;;;;;;6.80;4.60;;;;;;;14.51;41.90;98229.06;105637;1259;61087;-24
2023/10/19 11:31:19;;;;;;;8.00;4.00;;;;;;;14.70;41.90;98219.52;105672;1260;72447;-25
2023/10/19 11:33:48;;;;;;;8.60;4.20;;;;;;;15.20;41.44;98218.34;105702;1260;72945;-26
2023/10/19 11:36:16;;;;;;;6.40;4.10;;;;;;;15.31;40.72;98224.94;105728;1260;73140;-23
2023/10/19 11:38:46;;;;;;;4.60;3.20;;;;;;;14.36;41.71;98227.80;105684;1263;61143;-23
2023/10/19 11:41:14;;;;;;;7.20;3.50;;;;;;;14.10;42.36;98225.18;105697;1260;61060;-23
2023/10/19 11:43:44;;;;;;;6.50;3.30;;;;;;;14.51;42.29;98220.58;105726;1254;73172;-23
2023/10/19 11:46:12;;;;;;;5.40;3.50;;;;;;;14.90;42.07;98213.84;105660;1254;73111;-23
2023/10/19 11:48:42;;;;;;;6.90;3.70;;;;;;;15.25;41.02;98214.08;105745;1260;72617;-23
2023/10/19 11:58:46;;;;;;;8.10;3.90;;;;;;;14.72;40.30;98201.61;102569;1292;600302;-22
2023/10/19 12:08:59;;;;;;;4.00;3.20;;;;;;;14.73;41.54;98191.02;102881;1289;600945;-22
2023/10/19 12:11:27;;;;;;;4.20;3.10;;;;;;;15.06;40.94;98185.27;104830;1272;61197;-22
2023/10/19 12:13:54;;;;;;;5.10;3.20;;;;;;;15.30;40.20;98184.83;104816;1266;61155;-21
2023/10/19 12:16:24;;;;;;;6.80;3.60;;;;;;;15.47;40.45;98178.51;104809;1266;72374;-21
2023/10/19 12:18:51;;;;;;;6.30;3.40;;;;;;;15.51;40.06;98176.59;104844;1272;76272;-21
2023/10/19 12:21:27;;;;;;;4.90;3.60;;;;;;;15.51;39.94;98173.36;104831;1266;72296;-21
2023/10/19 12:23:56;;;;;;;6.10;3.40;;;;;;;15.48;39.77;98161.33;102617;1268;61196;-21
2023/10/19 12:26:24;;;;;;;5.70;3.70;;;;;;;15.43;40.11;98156.27;105001;1268;61294;-21
2023/10/19 12:28:51;;;;;;;6.40;3.60;;;;;;;15.46;40.11;98144.34;104971;1263;71379;-21
2023/10/19 12:38:59;;;;;;;6.40;3.70;;;;;;;15.47;39.18;98112.61;102590;1294;600219;-22
2023/10/19 12:41:28;;;;;;;7.00;3.20;;;;;;;15.44;38.96;98106.30;105557;1257;61156;-22
2023/10/19 12:44:00;;;;;;;5.30;3.80;;;;;;;15.26;38.95;98105.20;105335;1261;61178;-22
2023/10/19 12:46:29;;;;;;;5.80;4.00;;;;;;;14.88;39.27;98108.02;105575;1257;70702;-22
2023/10/19 12:48:58;;;;;;;5.30;3.40;;;;;;;14.61;39.92;98108.73;105575;1256;74329;-22
2023/10/19 12:51:26;;;;;;;5.80;3.20;;;;;;;14.44;40.29;98109.71;103645;1256;3121419;-23
2023/10/19 12:53:54;;;;;;;6.10;3.40;;;;;;;14.26;40.38;98106.13;105719;1252;62050;-21
2023/10/19 12:56:29;;;;;;;6.50;3.60;;;;;;;14.17;40.74;98103.80;105749;1257;61110;-22
2023/10/19 12:58:56;;;;;;;5.70;3.80;;;;;;;14.01;40.87;98103.20;105720;1253;71024;-22
2023/10/19 13:01:27;;;;;;;7.60;3.60;;;;;;;13.86;41.60;98101.59;105666;1257;73160;-22
2023/10/19 13:03:56;;;;;;;5.40;3.30;;;;;;;13.79;42.44;98095.80;105703;1259;73006;-22
2023/10/19 13:06:29;;;;;;;6.10;3.40;;;;;;;13.75;42.49;98102.12;105647;1252;62333;-22
2023/10/19 13:08:57;;;;;;;4.00;2.70;;;;;;;13.64;41.94;98095.89;105695;1257;62284;-22
2023/10/19 13:11:27;;;;;;;5.90;3.10;;;;;;;13.59;42.65;98091.02;105701;1257;73087;-23
2023/10/19 13:13:54;;;;;;;5.30;3.10;;;;;;;13.58;42.57;98086.91;105716;1253;74213;-23
2023/10/19 13:16:22;;;;;;;4.10;3.00;;;;;;;13.53;42.39;98086.80;105669;1254;72737;-23
2023/10/19 13:26:50;;;;;;;5.10;3.10;;;;;;;13.41;43.52;98096.73;102519;1291;615255;-24
2023/10/19 13:29:20;;;;;;;4.60;2.90;;;;;;;13.37;42.86;98100.45;105029;1267;61080;-24
2023/10/19 13:31:50;;;;;;;5.40;3.10;;;;;;;13.34;43.22;98095.17;104775;1271;62472;-23
2023/10/19 13:34:17;;;;;;;5.60;3.40;;;;;;;13.27;42.93;98092.33;104892;1267;71256;-25
2023/10/19 13:36:46;;;;;;;5.00;3.00;;;;;;;13.17;43.30;98088.66;104908;1267;74223;-23
2023/10/19 13:39:16;;;;;;;3.90;2.50;;;;;;;13.10;43.71;98084.16;102907;1267;3011482;-24